sensor_id;sensor_type;location;lat;lon;timestamp;pressure;altitude;pressure_sealevel;temperature
37452;BMP280;23314;51.114;6.900;2024-03-06T00:02:08;101253.69;;;7.64
37452;BMP280;23314;51.114;6.900;2024-03-06T00:04:34;101255.13;;;7.58
37452;BMP280;23314;51.114;6.900;2024-03-06T00:07:00;101250.53;;;7.51
37452;BMP280;23314;51.114;6.900;2024-03-06T00:09:26;101257.69;;;7.44
37452;BMP280;23314;51.114;6.900;2024-03-06T00:11:55;101263.69;;;7.37
37452;BMP280;23314;51.114;6.900;2024-03-06T00:14:20;101264.03;;;7.32
37452;BMP280;23314;51.114;6.900;2024-03-06T00:16:49;101269.28;;;7.28
37452;BMP280;23314;51.114;6.900;2024-03-06T00:19:21;101276.44;;;7.24
37452;BMP280;23314;51.114;6.900;2024-03-06T00:21:46;101273.00;;;7.20
37452;BMP280;23314;51.114;6.900;2024-03-06T00:24:13;101275.53;;;7.13
37452;BMP280;23314;51.114;6.900;2024-03-06T00:26:43;101278.91;;;7.06
37452;BMP280;23314;51.114;6.900;2024-03-06T00:29:09;101277.66;;;7.00
37452;BMP280;23314;51.114;6.900;2024-03-06T00:31:34;101287.84;;;6.94
37452;BMP280;23314;51.114;6.900;2024-03-06T00:34:00;101294.25;;;6.89
37452;BMP280;23314;51.114;6.900;2024-03-06T00:36:25;101300.25;;;6.86
37452;BMP280;23314;51.114;6.900;2024-03-06T00:38:51;101304.38;;;6.84
37452;BMP280;23314;51.114;6.900;2024-03-06T00:41:16;101301.69;;;6.80
37452;BMP280;23314;51.114;6.900;2024-03-06T00:43:42;101304.28;;;6.76
37452;BMP280;23314;51.114;6.900;2024-03-06T00:46:07;101306.53;;;6.74
37452;BMP280;23314;51.114;6.900;2024-03-06T00:48:32;101310.69;;;6.72
37452;BMP280;23314;51.114;6.900;2024-03-06T00:50:58;101306.84;;;6.69
37452;BMP280;23314;51.114;6.900;2024-03-06T00:53:23;101305.31;;;6.68
37452;BMP280;23314;51.114;6.900;2024-03-06T00:55:49;101312.16;;;6.69
37452;BMP280;23314;51.114;6.900;2024-03-06T00:58:15;101318.97;;;6.70
37452;BMP280;23314;51.114;6.900;2024-03-06T01:00:40;101320.50;;;6.71
37452;BMP280;23314;51.114;6.900;2024-03-06T01:03:05;101323.94;;;6.72
37452;BMP280;23314;51.114;6.900;2024-03-06T01:05:31;101321.63;;;6.70
37452;BMP280;23314;51.114;6.900;2024-03-06T01:07:56;101332.63;;;6.69
37452;BMP280;23314;51.114;6.900;2024-03-06T01:10:22;101328.44;;;6.68
37452;BMP280;23314;51.114;6.900;2024-03-06T01:12:47;101326.53;;;6.68
37452;BMP280;23314;51.114;6.900;2024-03-06T01:15:13;101329.88;;;6.65
37452;BMP280;23314;51.114;6.900;2024-03-06T01:17:38;101328.31;;;6.60
37452;BMP280;23314;51.114;6.900;2024-03-06T01:20:04;101327.91;;;6.58
37452;BMP280;23314;51.114;6.900;2024-03-06T01:22:33;101335.47;;;6.56
37452;BMP280;23314;51.114;6.900;2024-03-06T01:24:58;101337.22;;;6.49
37452;BMP280;23314;51.114;6.900;2024-03-06T01:27:24;101339.03;;;6.44
37452;BMP280;23314;51.114;6.900;2024-03-06T01:29:50;101333.72;;;6.41
37452;BMP280;23314;51.114;6.900;2024-03-06T01:32:15;101342.78;;;6.40
37452;BMP280;23314;51.114;6.900;2024-03-06T01:34:41;101335.53;;;6.37
37452;BMP280;23314;51.114;6.900;2024-03-06T01:37:06;101341.53;;;6.34
37452;BMP280;23314;51.114;6.900;2024-03-06T01:39:32;101334.63;;;6.29
37452;BMP280;23314;51.114;6.900;2024-03-06T01:41:58;101338.03;;;6.26
37452;BMP280;23314;51.114;6.900;2024-03-06T01:44:24;101333.78;;;6.21
37452;BMP280;23314;51.114;6.900;2024-03-06T01:46:49;101338.66;;;6.19
37452;BMP280;23314;51.114;6.900;2024-03-06T01:49:15;101337.03;;;6.14
37452;BMP280;23314;51.114;6.900;2024-03-06T01:51:41;101337.38;;;6.09
37452;BMP280;23314;51.114;6.900;2024-03-06T01:54:08;101345.22;;;6.06
37452;BMP280;23314;51.114;6.900;2024-03-06T01:56:35;101340.63;;;6.03
37452;BMP280;23314;51.114;6.900;2024-03-06T01:59:02;101347.03;;;6.02
37452;BMP280;23314;51.114;6.900;2024-03-06T02:01:29;101349.28;;;5.99
37452;BMP280;23314;51.114;6.900;2024-03-06T02:03:56;101349.69;;;6.02
37452;BMP280;23314;51.114;6.900;2024-03-06T02:06:21;101346.66;;;5.99
37452;BMP280;23314;51.114;6.900;2024-03-06T02:08:47;101349.66;;;5.98
37452;BMP280;23314;51.114;6.900;2024-03-06T02:11:12;101344.34;;;5.98
37452;BMP280;23314;51.114;6.900;2024-03-06T02:13:41;101353.09;;;5.98
37452;BMP280;23314;51.114;6.900;2024-03-06T02:16:07;101347.38;;;5.96
37452;BMP280;23314;51.114;6.900;2024-03-06T02:18:32;101349.25;;;5.96
37452;BMP280;23314;51.114;6.900;2024-03-06T02:20:58;101348.47;;;5.95
37452;BMP280;23314;51.114;6.900;2024-03-06T02:23:23;101350.03;;;5.96
37452;BMP280;23314;51.114;6.900;2024-03-06T02:25:49;101348.47;;;5.95
37452;BMP280;23314;51.114;6.900;2024-03-06T02:28:15;101353.09;;;5.98
37452;BMP280;23314;51.114;6.900;2024-03-06T02:30:43;101355.78;;;6.02
37452;BMP280;23314;51.114;6.900;2024-03-06T02:33:08;101357.09;;;6.12
37452;BMP280;23314;51.114;6.900;2024-03-06T02:35:35;101352.31;;;6.21
37452;BMP280;23314;51.114;6.900;2024-03-06T02:38:01;101352.81;;;6.30
37452;BMP280;23314;51.114;6.900;2024-03-06T02:40:27;101351.38;;;6.33
37452;BMP280;23314;51.114;6.900;2024-03-06T02:42:52;101362.09;;;6.40
37452;BMP280;23314;51.114;6.900;2024-03-06T02:45:17;101358.00;;;6.46
37452;BMP280;23314;51.114;6.900;2024-03-06T02:47:44;101359.25;;;6.53
37452;BMP280;23314;51.114;6.900;2024-03-06T02:50:09;101355.53;;;6.57
37452;BMP280;23314;51.114;6.900;2024-03-06T02:52:35;101356.00;;;6.63
37452;BMP280;23314;51.114;6.900;2024-03-06T02:55:01;101353.81;;;6.69
37452;BMP280;23314;51.114;6.900;2024-03-06T02:57:27;101352.03;;;6.76
37452;BMP280;23314;51.114;6.900;2024-03-06T02:59:53;101352.88;;;6.84
37452;BMP280;23314;51.114;6.900;2024-03-06T03:02:18;101354.94;;;6.95
37452;BMP280;23314;51.114;6.900;2024-03-06T03:04:44;101346.34;;;7.05
37452;BMP280;23314;51.114;6.900;2024-03-06T03:07:09;101354.84;;;7.18
37452;BMP280;23314;51.114;6.900;2024-03-06T03:09:35;101357.22;;;7.27
37452;BMP280;23314;51.114;6.900;2024-03-06T03:12:01;101356.94;;;7.35
37452;BMP280;23314;51.114;6.900;2024-03-06T03:14:27;101351.38;;;7.44
37452;BMP280;23314;51.114;6.900;2024-03-06T03:16:52;101356.00;;;7.51
37452;BMP280;23314;51.114;6.900;2024-03-06T03:19:19;101359.09;;;7.56
37452;BMP280;23314;51.114;6.900;2024-03-06T03:21:44;101359.88;;;7.61
37452;BMP280;23314;51.114;6.900;2024-03-06T03:24:10;101364.06;;;7.62
37452;BMP280;23314;51.114;6.900;2024-03-06T03:26:35;101364.41;;;7.56
37452;BMP280;23314;51.114;6.900;2024-03-06T03:29:02;101364.00;;;7.54
37452;BMP280;23314;51.114;6.900;2024-03-06T03:31:27;101366.59;;;7.51
37452;BMP280;23314;51.114;6.900;2024-03-06T03:33:53;101369.25;;;7.51
37452;BMP280;23314;51.114;6.900;2024-03-06T03:36:18;101374.19;;;7.52
37452;BMP280;23314;51.114;6.900;2024-03-06T03:38:43;101369.31;;;7.54
37452;BMP280;23314;51.114;6.900;2024-03-06T03:41:10;101372.38;;;7.56
37452;BMP280;23314;51.114;6.900;2024-03-06T03:43:35;101384.53;;;7.61
37452;BMP280;23314;51.114;6.900;2024-03-06T03:46:01;101381.53;;;7.63
37452;BMP280;23314;51.114;6.900;2024-03-06T03:48:26;101380.81;;;7.66
37452;BMP280;23314;51.114;6.900;2024-03-06T03:50:52;101384.63;;;7.68
37452;BMP280;23314;51.114;6.900;2024-03-06T03:53:17;101389.19;;;7.71
37452;BMP280;23314;51.114;6.900;2024-03-06T03:55:42;101397.16;;;7.71
37452;BMP280;23314;51.114;6.900;2024-03-06T03:58:07;101387.66;;;7.70
37452;BMP280;23314;51.114;6.900;2024-03-06T04:00:33;101397.09;;;7.64
37452;BMP280;23314;51.114;6.900;2024-03-06T04:02:58;101398.91;;;7.56
37452;BMP280;23314;51.114;6.900;2024-03-06T04:05:25;101406.00;;;7.45
37452;BMP280;23314;51.114;6.900;2024-03-06T04:07:51;101414.97;;;7.33
37452;BMP280;23314;51.114;6.900;2024-03-06T04:10:16;101417.09;;;7.24
37452;BMP280;23314;51.114;6.900;2024-03-06T04:12:41;101421.13;;;7.14
37452;BMP280;23314;51.114;6.900;2024-03-06T04:15:07;101423.22;;;7.01
37452;BMP280;23314;51.114;6.900;2024-03-06T04:17:34;101431.44;;;6.92
37452;BMP280;23314;51.114;6.900;2024-03-06T04:19:59;101420.34;;;6.87
37452;BMP280;23314;51.114;6.900;2024-03-06T04:22:25;101423.72;;;6.84
37452;BMP280;23314;51.114;6.900;2024-03-06T04:24:51;101419.19;;;6.84
37452;BMP280;23314;51.114;6.900;2024-03-06T04:27:16;101429.09;;;6.87
37452;BMP280;23314;51.114;6.900;2024-03-06T04:29:41;101425.38;;;6.92
37452;BMP280;23314;51.114;6.900;2024-03-06T04:32:07;101431.88;;;6.95
37452;BMP280;23314;51.114;6.900;2024-03-06T04:34:32;101434.84;;;6.93
37452;BMP280;23314;51.114;6.900;2024-03-06T04:36:57;101431.44;;;6.92
37452;BMP280;23314;51.114;6.900;2024-03-06T04:39:23;101431.78;;;6.91
37452;BMP280;23314;51.114;6.900;2024-03-06T04:41:48;101429.91;;;6.91
37452;BMP280;23314;51.114;6.900;2024-03-06T04:44:14;101433.28;;;6.88
37452;BMP280;23314;51.114;6.900;2024-03-06T04:46:39;101441.50;;;6.83
37452;BMP280;23314;51.114;6.900;2024-03-06T04:49:05;101444.06;;;6.76
37452;BMP280;23314;51.114;6.900;2024-03-06T04:51:30;101448.50;;;6.68
37452;BMP280;23314;51.114;6.900;2024-03-06T04:53:55;101450.31;;;6.64
37452;BMP280;23314;51.114;6.900;2024-03-06T04:56:20;101451.38;;;6.59
37452;BMP280;23314;51.114;6.900;2024-03-06T04:58:47;101452.47;;;6.55
37452;BMP280;23314;51.114;6.900;2024-03-06T05:01:12;101460.41;;;6.55
37452;BMP280;23314;51.114;6.900;2024-03-06T05:03:38;101460.00;;;6.53
37452;BMP280;23314;51.114;6.900;2024-03-06T05:06:07;101455.81;;;6.52
37452;BMP280;23314;51.114;6.900;2024-03-06T05:08:32;101471.28;;;6.50
37452;BMP280;23314;51.114;6.900;2024-03-06T05:11:00;101473.56;;;6.51
37452;BMP280;23314;51.114;6.900;2024-03-06T05:13:25;101479.72;;;6.55
37452;BMP280;23314;51.114;6.900;2024-03-06T05:15:51;101480.19;;;6.61
37452;BMP280;23314;51.114;6.900;2024-03-06T05:18:17;101473.84;;;6.66
37452;BMP280;23314;51.114;6.900;2024-03-06T05:20:42;101478.06;;;6.70
37452;BMP280;23314;51.114;6.900;2024-03-06T05:23:08;101474.69;;;6.73
37452;BMP280;23314;51.114;6.900;2024-03-06T05:25:34;101472.47;;;6.75
37452;BMP280;23314;51.114;6.900;2024-03-06T05:27:59;101476.25;;;6.74
37452;BMP280;23314;51.114;6.900;2024-03-06T05:30:24;101487.22;;;6.73
37452;BMP280;23314;51.114;6.900;2024-03-06T05:32:49;101488.72;;;6.74
37452;BMP280;23314;51.114;6.900;2024-03-06T05:35:15;101489.91;;;6.76
37452;BMP280;23314;51.114;6.900;2024-03-06T05:37:42;101493.81;;;6.83
37452;BMP280;23314;51.114;6.900;2024-03-06T05:40:08;101492.75;;;6.87
37452;BMP280;23314;51.114;6.900;2024-03-06T05:42:34;101500.00;;;6.90
37452;BMP280;23314;51.114;6.900;2024-03-06T05:44:59;101495.09;;;6.92
37452;BMP280;23314;51.114;6.900;2024-03-06T05:47:33;101495.88;;;6.93
37452;BMP280;23314;51.114;6.900;2024-03-06T05:49:59;101495.81;;;6.89
37452;BMP280;23314;51.114;6.900;2024-03-06T05:52:24;101495.81;;;6.89
37452;BMP280;23314;51.114;6.900;2024-03-06T05:54:50;101500.75;;;6.91
37452;BMP280;23314;51.114;6.900;2024-03-06T05:57:17;101501.53;;;6.91
37452;BMP280;23314;51.114;6.900;2024-03-06T05:59:42;101504.25;;;6.95
37452;BMP280;23314;51.114;6.900;2024-03-06T06:02:07;101517.63;;;7.02
37452;BMP280;23314;51.114;6.900;2024-03-06T06:04:33;101513.91;;;7.11
37452;BMP280;23314;51.114;6.900;2024-03-06T06:06:58;101518.66;;;7.21
37452;BMP280;23314;51.114;6.900;2024-03-06T06:09:24;101527.44;;;7.25
37452;BMP280;23314;51.114;6.900;2024-03-06T06:11:49;101520.28;;;7.29
37452;BMP280;23314;51.114;6.900;2024-03-06T06:14:15;101530.22;;;7.32
37452;BMP280;23314;51.114;6.900;2024-03-06T06:16:41;101530.97;;;7.33
37452;BMP280;23314;51.114;6.900;2024-03-06T06:19:07;101541.94;;;7.31
37452;BMP280;23314;51.114;6.900;2024-03-06T06:21:33;101549.53;;;7.33
37452;BMP280;23314;51.114;6.900;2024-03-06T06:24:00;101549.56;;;7.36
37452;BMP280;23314;51.114;6.900;2024-03-06T06:26:26;101551.59;;;7.43
37452;BMP280;23314;51.114;6.900;2024-03-06T06:28:51;101559.63;;;7.50
37452;BMP280;23314;51.114;6.900;2024-03-06T06:31:16;101551.03;;;7.57
37452;BMP280;23314;51.114;6.900;2024-03-06T06:33:42;101553.78;;;7.64
37452;BMP280;23314;51.114;6.900;2024-03-06T06:36:07;101554.63;;;7.72
37452;BMP280;23314;51.114;6.900;2024-03-06T06:38:32;101555.09;;;7.78
37452;BMP280;23314;51.114;6.900;2024-03-06T06:40:58;101558.53;;;7.82
37452;BMP280;23314;51.114;6.900;2024-03-06T06:43:24;101563.97;;;7.89
37452;BMP280;23314;51.114;6.900;2024-03-06T06:45:49;101564.06;;;7.96
37452;BMP280;23314;51.114;6.900;2024-03-06T06:48:15;101571.38;;;8.07
37452;BMP280;23314;51.114;6.900;2024-03-06T06:50:41;101572.66;;;8.16
37452;BMP280;23314;51.114;6.900;2024-03-06T06:53:06;101573.50;;;8.24
37452;BMP280;23314;51.114;6.900;2024-03-06T06:55:31;101580.78;;;8.31
37452;BMP280;23314;51.114;6.900;2024-03-06T06:57:57;101582.78;;;8.41
37452;BMP280;23314;51.114;6.900;2024-03-06T07:00:22;101588.22;;;8.52
37452;BMP280;23314;51.114;6.900;2024-03-06T07:02:48;101589.81;;;8.60
37452;BMP280;23314;51.114;6.900;2024-03-06T07:05:14;101597.47;;;8.65
37452;BMP280;23314;51.114;6.900;2024-03-06T07:07:40;101605.47;;;8.65
37452;BMP280;23314;51.114;6.900;2024-03-06T07:10:06;101604.75;;;8.72
37452;BMP280;23314;51.114;6.900;2024-03-06T07:12:32;101603.69;;;8.80
37452;BMP280;23314;51.114;6.900;2024-03-06T07:14:58;101612.91;;;8.90
37452;BMP280;23314;51.114;6.900;2024-03-06T07:17:24;101613.31;;;8.92
37452;BMP280;23314;51.114;6.900;2024-03-06T07:19:49;101617.13;;;8.95
37452;BMP280;23314;51.114;6.900;2024-03-06T07:22:15;101615.28;;;9.03
37452;BMP280;23314;51.114;6.900;2024-03-06T07:24:41;101620.66;;;9.10
37452;BMP280;23314;51.114;6.900;2024-03-06T07:27:07;101624.13;;;9.14
37452;BMP280;23314;51.114;6.900;2024-03-06T07:29:34;101630.66;;;9.20
37452;BMP280;23314;51.114;6.900;2024-03-06T07:32:00;101623.88;;;9.30
37452;BMP280;23314;51.114;6.900;2024-03-06T07:34:26;101626.97;;;9.39
37452;BMP280;23314;51.114;6.900;2024-03-06T07:36:52;101641.88;;;9.51
37452;BMP280;23314;51.114;6.900;2024-03-06T07:39:21;101639.66;;;9.57
37452;BMP280;23314;51.114;6.900;2024-03-06T07:41:46;101645.72;;;9.57
37452;BMP280;23314;51.114;6.900;2024-03-06T07:44:12;101651.50;;;9.67
37452;BMP280;23314;51.114;6.900;2024-03-06T07:46:38;101659.56;;;9.77
37452;BMP280;23314;51.114;6.900;2024-03-06T07:49:03;101655.81;;;9.86
37452;BMP280;23314;51.114;6.900;2024-03-06T07:51:30;101662.34;;;9.95
37452;BMP280;23314;51.114;6.900;2024-03-06T07:53:56;101667.69;;;10.03
37452;BMP280;23314;51.114;6.900;2024-03-06T07:56:23;101670.41;;;10.14
37452;BMP280;23314;51.114;6.900;2024-03-06T07:58:48;101676.56;;;10.25
37452;BMP280;23314;51.114;6.900;2024-03-06T08:01:15;101678.88;;;10.34
37452;BMP280;23314;51.114;6.900;2024-03-06T08:03:40;101680.81;;;10.48
37452;BMP280;23314;51.114;6.900;2024-03-06T08:06:09;101681.97;;;10.54
37452;BMP280;23314;51.114;6.900;2024-03-06T08:08:36;101677.44;;;10.58
37452;BMP280;23314;51.114;6.900;2024-03-06T08:11:05;101686.63;;;10.68
37452;BMP280;23314;51.114;6.900;2024-03-06T08:13:30;101698.03;;;10.72
37452;BMP280;23314;51.114;6.900;2024-03-06T08:15:55;101691.97;;;10.86
37452;BMP280;23314;51.114;6.900;2024-03-06T08:18:21;101701.88;;;10.89
37452;BMP280;23314;51.114;6.900;2024-03-06T08:20:46;101717.50;;;10.80
37452;BMP280;23314;51.114;6.900;2024-03-06T08:23:11;101723.19;;;10.67
37452;BMP280;23314;51.114;6.900;2024-03-06T08:25:36;101726.97;;;10.63
37452;BMP280;23314;51.114;6.900;2024-03-06T08:28:03;101729.66;;;10.63
37452;BMP280;23314;51.114;6.900;2024-03-06T08:30:28;101729.31;;;10.68
37452;BMP280;23314;51.114;6.900;2024-03-06T08:32:55;101729.34;;;10.79
37452;BMP280;23314;51.114;6.900;2024-03-06T08:35:21;101732.41;;;10.84
37452;BMP280;23314;51.114;6.900;2024-03-06T08:37:49;101736.22;;;10.87
37452;BMP280;23314;51.114;6.900;2024-03-06T08:40:16;101741.16;;;10.85
37452;BMP280;23314;51.114;6.900;2024-03-06T08:42:43;101739.63;;;10.84
37452;BMP280;23314;51.114;6.900;2024-03-06T08:45:08;101736.59;;;10.96
37452;BMP280;23314;51.114;6.900;2024-03-06T08:47:34;101730.13;;;11.22
37452;BMP280;23314;51.114;6.900;2024-03-06T08:50:00;101740.09;;;11.40
37452;BMP280;23314;51.114;6.900;2024-03-06T08:52:28;101743.50;;;11.51
37452;BMP280;23314;51.114;6.900;2024-03-06T08:54:53;101746.19;;;11.59
37452;BMP280;23314;51.114;6.900;2024-03-06T08:57:18;101755.34;;;11.65
37452;BMP280;23314;51.114;6.900;2024-03-06T08:59:46;101752.69;;;11.57
37452;BMP280;23314;51.114;6.900;2024-03-06T09:02:16;101759.13;;;11.60
37452;BMP280;23314;51.114;6.900;2024-03-06T09:04:43;101759.56;;;11.66
37452;BMP280;23314;51.114;6.900;2024-03-06T09:07:08;101766.00;;;11.72
37452;BMP280;23314;51.114;6.900;2024-03-06T09:09:35;101773.28;;;11.71
37452;BMP280;23314;51.114;6.900;2024-03-06T09:12:07;101775.19;;;11.71
37452;BMP280;23314;51.114;6.900;2024-03-06T09:14:36;101777.84;;;11.89
37452;BMP280;23314;51.114;6.900;2024-03-06T09:17:01;101777.78;;;12.03
37452;BMP280;23314;51.114;6.900;2024-03-06T09:19:28;101788.13;;;12.01
37452;BMP280;23314;51.114;6.900;2024-03-06T09:21:53;101784.28;;;12.06
37452;BMP280;23314;51.114;6.900;2024-03-06T09:24:20;101788.09;;;12.12
37452;BMP280;23314;51.114;6.900;2024-03-06T09:26:46;101799.59;;;11.95
37452;BMP280;23314;51.114;6.900;2024-03-06T09:29:12;101791.56;;;11.91
37452;BMP280;23314;51.114;6.900;2024-03-06T09:31:37;101799.97;;;11.93
37452;BMP280;23314;51.114;6.900;2024-03-06T09:34:03;101795.75;;;12.10
37452;BMP280;23314;51.114;6.900;2024-03-06T09:36:28;101802.19;;;12.23
37452;BMP280;23314;51.114;6.900;2024-03-06T09:38:54;101807.56;;;12.20
37452;BMP280;23314;51.114;6.900;2024-03-06T09:41:21;101805.66;;;12.17
37452;BMP280;23314;51.114;6.900;2024-03-06T09:43:46;101809.09;;;12.17
37452;BMP280;23314;51.114;6.900;2024-03-06T09:46:11;101812.53;;;12.25
37452;BMP280;23314;51.114;6.900;2024-03-06T09:48:45;101819.78;;;12.25
37452;BMP280;23314;51.114;6.900;2024-03-06T09:51:11;101826.66;;;12.33
37452;BMP280;23314;51.114;6.900;2024-03-06T09:53:38;101835.44;;;12.30
37452;BMP280;23314;51.114;6.900;2024-03-06T09:56:04;101830.06;;;12.37
37452;BMP280;23314;51.114;6.900;2024-03-06T09:58:31;101841.91;;;12.47
37452;BMP280;23314;51.114;6.900;2024-03-06T10:00:58;101837.66;;;12.49
37452;BMP280;23314;51.114;6.900;2024-03-06T10:03:24;101845.28;;;12.51
37452;BMP280;23314;51.114;6.900;2024-03-06T10:05:49;101850.34;;;12.38
37452;BMP280;23314;51.114;6.900;2024-03-06T10:08:14;101845.00;;;12.38
37452;BMP280;23314;51.114;6.900;2024-03-06T10:10:42;101846.81;;;12.52
37452;BMP280;23314;51.114;6.900;2024-03-06T10:13:08;101848.34;;;12.57
37452;BMP280;23314;51.114;6.900;2024-03-06T10:15:33;101851.75;;;12.64
37452;BMP280;23314;51.114;6.900;2024-03-06T10:18:14;101846.72;;;12.77
37452;BMP280;23314;51.114;6.900;2024-03-06T10:20:40;101851.97;;;13.02
37452;BMP280;23314;51.114;6.900;2024-03-06T10:23:09;101853.34;;;13.29
37452;BMP280;23314;51.114;6.900;2024-03-06T10:25:34;101857.56;;;13.30
37452;BMP280;23314;51.114;6.900;2024-03-06T10:28:11;101862.16;;;13.26
37452;BMP280;23314;51.114;6.900;2024-03-06T10:30:38;101864.88;;;13.22
37452;BMP280;23314;51.114;6.900;2024-03-06T10:33:08;101867.50;;;13.29
37452;BMP280;23314;51.114;6.900;2024-03-06T10:35:34;101874.06;;;13.21
37452;BMP280;23314;51.114;6.900;2024-03-06T10:38:01;101874.91;;;13.11
37452;BMP280;23314;51.114;6.900;2024-03-06T10:40:31;101877.13;;;13.19
37452;BMP280;23314;51.114;6.900;2024-03-06T10:42:57;101871.81;;;13.16
37452;BMP280;23314;51.114;6.900;2024-03-06T10:45:46;101878.22;;;13.29
37452;BMP280;23314;51.114;6.900;2024-03-06T10:48:13;101885.09;;;13.30
37452;BMP280;23314;51.114;6.900;2024-03-06T10:50:45;101882.75;;;13.40
37452;BMP280;23314;51.114;6.900;2024-03-06T10:53:13;101889.22;;;13.46
37452;BMP280;23314;51.114;6.900;2024-03-06T10:55:39;101888.44;;;13.45
37452;BMP280;23314;51.114;6.900;2024-03-06T10:58:06;101893.25;;;13.65
37452;BMP280;23314;51.114;6.900;2024-03-06T11:00:38;101899.59;;;13.85
37452;BMP280;23314;51.114;6.900;2024-03-06T11:03:06;101897.50;;;14.08
37452;BMP280;23314;51.114;6.900;2024-03-06T11:05:43;101908.56;;;14.13
37452;BMP280;23314;51.114;6.900;2024-03-06T11:08:12;101898.94;;;14.19
37452;BMP280;23314;51.114;6.900;2024-03-06T11:10:39;101897.50;;;14.08
37452;BMP280;23314;51.114;6.900;2024-03-06T11:13:24;101905.44;;;13.80
37452;BMP280;23314;51.114;6.900;2024-03-06T11:15:57;101906.81;;;13.50
37452;BMP280;23314;51.114;6.900;2024-03-06T11:23:30;101911.44;;;12.68
37452;BMP280;23314;51.114;6.900;2024-03-06T11:25:56;101901.91;;;12.53
37452;BMP280;23314;51.114;6.900;2024-03-06T11:28:31;101902.28;;;12.44
37452;BMP280;23314;51.114;6.900;2024-03-06T11:33:28;101896.94;;;12.51
37452;BMP280;23314;51.114;6.900;2024-03-06T11:41:48;101901.47;;;12.69
37452;BMP280;23314;51.114;6.900;2024-03-06T11:44:21;101904.16;;;12.65
37452;BMP280;23314;51.114;6.900;2024-03-06T11:47:03;101901.53;;;12.54
37452;BMP280;23314;51.114;6.900;2024-03-06T11:49:32;101898.44;;;12.56
37452;BMP280;23314;51.114;6.900;2024-03-06T11:52:04;101896.16;;;12.51
37452;BMP280;23314;51.114;6.900;2024-03-06T11:54:31;101903.03;;;12.48
37452;BMP280;23314;51.114;6.900;2024-03-06T11:56:58;101903.03;;;12.55
37452;BMP280;23314;51.114;6.900;2024-03-06T11:59:26;101898.81;;;12.58
37452;BMP280;23314;51.114;6.900;2024-03-06T12:01:52;101900.34;;;12.59
37452;BMP280;23314;51.114;6.900;2024-03-06T12:04:19;101905.31;;;12.64
37452;BMP280;23314;51.114;6.900;2024-03-06T12:06:45;101893.44;;;12.65
37452;BMP280;23314;51.114;6.900;2024-03-06T12:09:10;101898.00;;;12.72
37452;BMP280;23314;51.114;6.900;2024-03-06T12:11:36;101893.03;;;12.74
37452;BMP280;23314;51.114;6.900;2024-03-06T12:14:02;101898.75;;;12.80
37452;BMP280;23314;51.114;6.900;2024-03-06T12:16:28;101890.72;;;12.83
37452;BMP280;23314;51.114;6.900;2024-03-06T12:18:57;101897.19;;;12.86
37452;BMP280;23314;51.114;6.900;2024-03-06T12:21:32;101893.75;;;12.89
37452;BMP280;23314;51.114;6.900;2024-03-06T12:24:06;101897.56;;;12.88
37452;BMP280;23314;51.114;6.900;2024-03-06T12:26:31;101892.16;;;12.99
37452;BMP280;23314;51.114;6.900;2024-03-06T12:29:10;101897.06;;;13.15
37452;BMP280;23314;51.114;6.900;2024-03-06T12:31:37;101893.59;;;13.18
37452;BMP280;23314;51.114;6.900;2024-03-06T12:34:06;101895.06;;;13.26
37452;BMP280;23314;51.114;6.900;2024-03-06T12:36:32;101896.94;;;13.36
37452;BMP280;23314;51.114;6.900;2024-03-06T12:39:04;101896.75;;;13.58
37452;BMP280;23314;51.114;6.900;2024-03-06T12:41:40;101892.31;;;13.90
37452;BMP280;23314;51.114;6.900;2024-03-06T12:44:06;101899.31;;;14.18
37452;BMP280;23314;51.114;6.900;2024-03-06T12:46:34;101897.59;;;14.39
37452;BMP280;23314;51.114;6.900;2024-03-06T12:49:00;101899.41;;;14.45
37452;BMP280;23314;51.114;6.900;2024-03-06T12:51:25;101885.50;;;14.54
37452;BMP280;23314;51.114;6.900;2024-03-06T12:53:50;101895.00;;;14.62
37452;BMP280;23314;51.114;6.900;2024-03-06T12:56:16;101896.06;;;14.68
37452;BMP280;23314;51.114;6.900;2024-03-06T12:58:42;101899.16;;;14.67
37452;BMP280;23314;51.114;6.900;2024-03-06T13:01:07;101900.19;;;14.77
37452;BMP280;23314;51.114;6.900;2024-03-06T13:03:32;101892.84;;;14.81
37452;BMP280;23314;51.114;6.900;2024-03-06T13:05:58;101898.53;;;14.86
37452;BMP280;23314;51.114;6.900;2024-03-06T13:08:24;101898.44;;;14.94
37452;BMP280;23314;51.114;6.900;2024-03-06T13:10:50;101895.19;;;15.06
37452;BMP280;23314;51.114;6.900;2024-03-06T13:13:15;101897.41;;;15.11
37452;BMP280;23314;51.114;6.900;2024-03-06T13:15:40;101901.19;;;15.17
37452;BMP280;23314;51.114;6.900;2024-03-06T13:18:06;101891.81;;;15.26
37452;BMP280;23314;51.114;6.900;2024-03-06T13:20:33;101907.81;;;15.36
37452;BMP280;23314;51.114;6.900;2024-03-06T13:22:58;101900.06;;;15.39
37452;BMP280;23314;51.114;6.900;2024-03-06T13:25:25;101902.75;;;15.39
37452;BMP280;23314;51.114;6.900;2024-03-06T13:27:51;101902.47;;;15.33
37452;BMP280;23314;51.114;6.900;2024-03-06T13:30:19;101905.13;;;15.36
37452;BMP280;23314;51.114;6.900;2024-03-06T13:32:45;101908.41;;;15.48
37452;BMP280;23314;51.114;6.900;2024-03-06T13:35:13;101904.00;;;15.58
37452;BMP280;23314;51.114;6.900;2024-03-06T13:37:42;101918.09;;;15.65
37452;BMP280;23314;51.114;6.900;2024-03-06T13:40:09;101921.59;;;15.62
37452;BMP280;23314;51.114;6.900;2024-03-06T13:42:37;101926.03;;;15.73
37452;BMP280;23314;51.114;6.900;2024-03-06T13:45:03;101924.13;;;15.73
37452;BMP280;23314;51.114;6.900;2024-03-06T13:47:30;101923.72;;;15.75
37452;BMP280;23314;51.114;6.900;2024-03-06T13:49:55;101922.88;;;15.78
37452;BMP280;23314;51.114;6.900;2024-03-06T13:52:21;101924.06;;;15.77
37452;BMP280;23314;51.114;6.900;2024-03-06T13:54:46;101926.31;;;15.78
37452;BMP280;23314;51.114;6.900;2024-03-06T13:57:13;101921.25;;;15.84
37452;BMP280;23314;51.114;6.900;2024-03-06T13:59:38;101927.09;;;15.79
37452;BMP280;23314;51.114;6.900;2024-03-06T14:02:06;101927.47;;;15.77
37452;BMP280;23314;51.114;6.900;2024-03-06T14:04:32;101934.69;;;15.84
37452;BMP280;23314;51.114;6.900;2024-03-06T14:06:57;101929.69;;;15.86
37452;BMP280;23314;51.114;6.900;2024-03-06T14:09:23;101932.50;;;15.99
37452;BMP280;23314;51.114;6.900;2024-03-06T14:11:51;101932.34;;;16.10
37452;BMP280;23314;51.114;6.900;2024-03-06T14:14:17;101940.69;;;16.15